Time;durP1;ratioP1;P1;durP2;ratioP2;P2;SDS_P1;SDS_P2;PMS_P1;PMS_P2;Temp;Humidity;BMP_temperature;BMP_pressure;BME280_temperature;BME280_humidity;BME280_pressure;Samples;Min_cycle;Max_cycle;Signal;HPM_P1;HPM_P2
2021/12/21 00:00:59;;;;;;;53.50;32.53;;;3.40;99.90;;;;;;5019200;28;20509;-88
2021/12/21 00:03:25;;;;;;;53.08;31.58;;;2.80;99.90;;;;;;5033688;28;20131;-88
2021/12/21 00:05:52;;;;;;;64.50;35.65;;;3.60;99.90;;;;;;5037143;28;20045;-88
2021/12/21 00:08:18;;;;;;;59.30;32.72;;;2.90;99.90;;;;;;5034469;28;20436;-88
2021/12/21 00:10:46;;;;;;;92.75;41.67;;;2.80;99.90;;;;;;5042618;28;20025;-88
2021/12/21 00:13:41;;;;;;;62.47;33.20;;;2.90;99.90;;;;;;5033048;28;20033;-88
2021/12/21 00:18:47;;;;;;;52.40;31.10;;;2.80;99.90;;;;;;5045629;28;20552;-88
2021/12/21 00:21:37;;;;;;;50.72;29.67;;;3.30;99.90;;;;;;5044876;28;20029;-88
2021/12/21 00:24:12;;;;;;;60.53;32.10;;;2.70;99.90;;;;;;5019350;28;20386;-88
2021/12/21 00:26:37;;;;;;;61.13;32.53;;;2.90;99.90;;;;;;5032392;28;20072;-89
2021/12/21 00:29:04;;;;;;;57.88;31.25;;;2.90;99.90;;;;;;5034549;28;20033;-88
2021/12/21 00:31:33;;;;;;;50.55;29.48;;;2.90;99.90;;;;;;5034303;28;20036;-88
2021/12/21 00:34:00;;;;;;;49.83;28.50;;;3.00;99.90;;;;;;5032520;28;20036;-88
2021/12/21 00:36:27;;;;;;;46.47;26.67;;;2.90;99.90;;;;;;5033385;28;20405;-88
2021/12/21 00:38:54;;;;;;;47.88;26.00;;;2.80;99.90;;;;;;5037162;28;20029;-88
2021/12/21 00:41:20;;;;;;;74.53;35.35;;;2.90;99.90;;;;;;5034456;28;20045;-89
2021/12/21 00:43:47;;;;;;;55.53;30.08;;;3.00;99.90;;;;;;5034593;28;20026;-88
2021/12/21 00:46:13;;;;;;;46.55;26.55;;;3.00;99.90;;;;;;5033427;28;20033;-88
2021/12/21 00:48:48;;;;;;;49.38;25.38;;;3.00;99.90;;;;;;5029924;28;20478;-88
2021/12/21 00:51:14;;;;;;;39.30;22.48;;;3.10;99.90;;;;;;5044070;28;20508;-89
2021/12/21 00:53:40;;;;;;;39.25;21.60;;;3.40;99.90;;;;;;5034603;28;20565;-88
2021/12/21 00:56:06;;;;;;;35.90;20.88;;;2.90;99.90;;;;;;5015197;28;20116;-88
2021/12/21 00:58:32;;;;;;;35.55;20.17;;;2.80;99.90;;;;;;5033046;28;20112;-88
2021/12/21 01:01:03;;;;;;;36.35;20.55;;;3.00;99.90;;;;;;5031453;28;20128;-88
2021/12/21 01:03:29;;;;;;;37.97;19.80;;;2.70;99.90;;;;;;5031668;28;20457;-88
2021/12/21 01:06:17;;;;;;;34.13;18.88;;;3.40;99.90;;;;;;5018404;28;20022;-89
2021/12/21 01:09:11;;;;;;;29.67;18.08;;;2.70;99.90;;;;;;5036850;28;20025;-89
2021/12/21 01:11:36;;;;;;;33.15;18.13;;;2.60;99.90;;;;;;5034089;28;20038;-89
2021/12/21 01:21:30;;;;;;;31.13;17.95;;;2.70;99.90;;;;;;5032454;28;20052;-87
2021/12/21 01:24:24;;;;;;;31.60;17.92;;;2.70;99.90;;;;;;5026264;28;20025;-88
2021/12/21 01:27:02;;;;;;;31.02;17.80;;;3.30;99.90;;;;;;5039503;28;20069;-88
2021/12/21 01:29:48;;;;;;;35.08;19.13;;;2.70;99.90;;;;;;5037766;28;20041;-88
2021/12/21 01:32:26;;;;;;;37.08;20.27;;;3.20;99.90;;;;;;5038431;28;20033;-88
2021/12/21 01:35:05;;;;;;;36.22;19.08;;;3.30;99.90;;;;;;5036992;28;20061;-89
2021/12/21 01:37:58;;;;;;;35.08;19.33;;;2.60;99.90;;;;;;5036485;28;20032;-88
2021/12/21 01:50:39;;;;;;;32.53;17.27;;;2.80;99.90;;;;;;5045984;28;20039;-89
2021/12/21 01:53:05;;;;;;;32.58;17.98;;;2.80;99.90;;;;;;5042074;28;20037;-89
2021/12/21 01:55:31;;;;;;;29.00;17.25;;;3.10;99.90;;;;;;5020136;28;20078;-88
2021/12/21 01:57:57;;;;;;;28.33;16.48;;;3.40;99.90;;;;;;5034236;28;20029;-88
2021/12/21 02:00:22;;;;;;;31.90;17.65;;;2.80;99.90;;;;;;5050060;28;20480;-88
2021/12/21 02:02:48;;;;;;;32.72;17.70;;;2.80;99.90;;;;;;5038518;28;20485;-88
2021/12/21 02:05:14;;;;;;;30.70;17.65;;;3.30;99.90;;;;;;5037360;28;20033;-89
2021/12/21 02:07:40;;;;;;;29.88;16.75;;;2.70;99.90;;;;;;5037810;28;20037;-88
2021/12/21 02:10:06;;;;;;;31.83;17.38;;;3.30;99.90;;;;;;5035948;28;20118;-89
2021/12/21 02:12:32;;;;;;;30.38;16.88;;;2.70;99.90;;;;;;5016559;28;20075;-88
2021/12/21 02:15:00;;;;;;;29.45;17.65;;;2.60;99.90;;;;;;5037593;28;20115;-88
2021/12/21 02:28:33;;;;;;;32.10;17.27;;;3.50;99.90;;;;;;5033827;28;20025;-88
2021/12/21 02:30:59;;;;;;;27.77;16.80;;;2.70;99.90;;;;;;5020762;28;20100;-89
2021/12/21 02:33:26;;;;;;;31.58;17.38;;;2.80;99.90;;;;;;5035654;28;20108;-89
2021/12/21 02:35:53;;;;;;;27.00;16.02;;;2.80;99.90;;;;;;5020531;28;20032;-88
2021/12/21 02:38:19;;;;;;;29.02;16.60;;;3.60;99.90;;;;;;5036747;28;20033;-88
2021/12/21 02:40:45;;;;;;;29.08;16.88;;;3.50;99.90;;;;;;5036712;28;20030;-88
2021/12/21 02:43:13;;;;;;;30.15;17.55;;;2.90;99.90;;;;;;5035934;28;20033;-88
2021/12/21 02:45:40;;;;;;;28.85;17.52;;;3.20;99.90;;;;;;5033056;28;20061;-88
2021/12/21 02:48:07;;;;;;;29.63;16.80;;;3.00;99.90;;;;;;5038557;28;20096;-88
2021/12/21 02:50:33;;;;;;;25.58;15.35;;;3.00;99.90;;;;;;5019002;28;20033;-88
2021/12/21 02:52:59;;;;;;;28.75;16.50;;;3.00;99.90;;;;;;5017203;28;20393;-88
2021/12/21 02:55:26;;;;;;;30.95;17.20;;;3.60;99.90;;;;;;5017896;28;20396;-88
2021/12/21 02:57:52;;;;;;;28.60;16.67;;;3.60;99.90;;;;;;5033077;28;20025;-88
2021/12/21 03:00:17;;;;;;;26.58;16.20;;;2.90;99.90;;;;;;5052887;28;20036;-88
2021/12/21 03:02:43;;;;;;;28.80;16.48;;;2.90;99.90;;;;;;5037467;28;20113;-88
2021/12/21 03:05:09;;;;;;;25.70;15.82;;;3.60;99.90;;;;;;5039124;28;20033;-88
2021/12/21 03:10:11;;;;;;;29.02;16.75;;;3.50;99.90;;;;;;5035189;28;20017;-88
2021/12/21 03:15:28;;;;;;;30.70;17.85;;;2.80;99.90;;;;;;5046215;28;20021;-89
2021/12/21 03:17:55;;;;;;;33.63;18.75;;;3.40;99.90;;;;;;5018088;28;20061;-89
2021/12/21 03:20:21;;;;;;;35.00;18.15;;;2.80;99.90;;;;;;5036179;28;20032;-89
2021/12/21 03:22:47;;;;;;;28.63;16.73;;;2.80;99.90;;;;;;5036060;28;20021;-89
2021/12/21 03:25:13;;;;;;;29.63;17.45;;;3.30;99.90;;;;;;5035688;28;20028;-88
2021/12/21 03:27:39;;;;;;;31.58;18.98;;;2.80;99.90;;;;;;5032188;28;20436;-89
2021/12/21 03:30:08;;;;;;;30.65;18.05;;;2.70;99.90;;;;;;5020010;28;20112;-89
2021/12/21 03:32:33;;;;;;;30.15;18.27;;;2.80;99.90;;;;;;5034972;28;20025;-88
2021/12/21 03:34:59;;;;;;;32.25;18.25;;;2.80;99.90;;;;;;5016336;28;20029;-89
2021/12/21 03:37:25;;;;;;;32.53;19.38;;;2.80;99.90;;;;;;5035806;28;20485;-88
2021/12/21 03:39:53;;;;;;;30.13;18.38;;;2.70;99.90;;;;;;5031597;28;20040;-88
2021/12/21 03:42:20;;;;;;;30.25;18.27;;;3.30;99.90;;;;;;5035805;28;20104;-89
2021/12/21 03:44:47;;;;;;;31.65;19.50;;;3.40;99.90;;;;;;5044381;28;20021;-89
2021/12/21 03:47:15;;;;;;;34.42;19.63;;;3.00;99.90;;;;;;5046256;28;20097;-88
2021/12/21 03:52:13;;;;;;;32.40;18.33;;;3.20;99.90;;;;;;5034631;28;20128;-88
2021/12/21 03:54:41;;;;;;;30.98;18.38;;;2.90;99.90;;;;;;5013838;28;20025;-88
2021/12/21 03:57:07;;;;;;;30.83;18.83;;;2.90;99.90;;;;;;5052619;28;20047;-88
2021/12/21 03:59:33;;;;;;;34.30;19.80;;;3.50;99.90;;;;;;5036056;28;20045;-88
2021/12/21 04:01:59;;;;;;;31.73;18.52;;;2.80;99.90;;;;;;5023222;28;20139;-89
2021/12/21 04:04:25;;;;;;;35.10;19.55;;;3.40;99.90;;;;;;5027593;28;20021;-88
2021/12/21 04:06:51;;;;;;;35.03;20.02;;;2.90;99.90;;;;;;5014007;28;20033;-88
2021/12/21 04:09:18;;;;;;;34.33;19.52;;;3.40;99.90;;;;;;5035977;28;20414;-88
2021/12/21 04:11:43;;;;;;;34.72;20.42;;;3.40;99.90;;;;;;5034472;28;20052;-88
2021/12/21 04:14:10;;;;;;;36.22;20.48;;;2.90;99.90;;;;;;5016123;28;20056;-88
2021/12/21 04:16:36;;;;;;;33.50;19.40;;;2.70;99.90;;;;;;5017291;28;20029;-88
2021/12/21 04:19:01;;;;;;;35.03;20.40;;;3.30;99.90;;;;;;5032645;28;20037;-89
2021/12/21 04:21:27;;;;;;;33.67;20.08;;;2.70;99.90;;;;;;5015395;28;20036;-88
2021/12/21 04:23:53;;;;;;;32.15;19.90;;;3.10;99.90;;;;;;5036167;28;20038;-88
2021/12/21 04:26:19;;;;;;;33.63;19.88;;;2.70;99.90;;;;;;5035233;28;20052;-88
2021/12/21 04:28:46;;;;;;;35.67;20.55;;;3.30;99.90;;;;;;5017113;28;20025;-88
2021/12/21 04:31:12;;;;;;;32.95;19.17;;;2.80;99.90;;;;;;5034242;28;20519;-88
2021/12/21 04:33:39;;;;;;;31.83;19.50;;;2.80;99.90;;;;;;5030957;28;20026;-88
2021/12/21 04:36:05;;;;;;;32.92;19.65;;;2.90;99.90;;;;;;5018914;28;20029;-88
2021/12/21 04:38:36;;;;;;;35.53;20.73;;;3.00;99.90;;;;;;5034329;28;20482;-88
2021/12/21 04:41:28;;;;;;;31.88;19.30;;;3.50;99.90;;;;;;5033245;28;20068;-88
2021/12/21 04:43:53;;;;;;;34.33;19.75;;;2.90;99.90;;;;;;5034078;28;20430;-89
2021/12/21 04:46:20;;;;;;;35.30;20.33;;;2.90;99.90;;;;;;5016809;28;20042;-88
2021/12/21 04:48:46;;;;;;;32.30;19.52;;;3.40;99.90;;;;;;5029354;28;20142;-89
2021/12/21 04:51:12;;;;;;;30.77;18.73;;;3.00;99.90;;;;;;5036384;28;20056;-88
2021/12/21 04:53:37;;;;;;;33.05;19.48;;;3.00;99.90;;;;;;5016444;28;20111;-89
2021/12/21 04:56:04;;;;;;;31.80;19.08;;;2.80;99.90;;;;;;5023059;28;20060;-88
2021/12/21 04:58:30;;;;;;;35.45;19.15;;;2.90;99.90;;;;;;5043615;28;20022;-88
2021/12/21 05:00:56;;;;;;;33.78;20.00;;;3.40;99.90;;;;;;5031402;28;20080;-88
2021/12/21 05:03:22;;;;;;;34.38;20.05;;;2.80;99.90;;;;;;5033827;28;20446;-88
2021/12/21 05:05:48;;;;;;;31.67;19.20;;;2.80;99.90;;;;;;5035184;28;20116;-89
2021/12/21 05:08:26;;;;;;;31.85;19.38;;;3.40;99.90;;;;;;5034098;28;20067;-89
2021/12/21 05:10:58;;;;;;;35.15;20.45;;;3.40;99.90;;;;;;5034228;28;20030;-88
2021/12/21 05:13:26;;;;;;;31.48;19.17;;;3.50;99.90;;;;;;5034361;28;20025;-88
2021/12/21 05:15:52;;;;;;;34.65;19.60;;;3.00;99.90;;;;;;5013451;28;20437;-88
2021/12/21 05:18:18;;;;;;;34.50;21.13;;;2.80;99.90;;;;;;5016260;28;20112;-88
2021/12/21 05:20:44;;;;;;;33.92;19.88;;;3.40;99.90;;;;;;5034934;28;20029;-88
2021/12/21 05:23:10;;;;;;;31.83;19.33;;;3.10;99.90;;;;;;5034291;28;20032;-89
2021/12/21 05:25:37;;;;;;;33.55;19.70;;;2.90;99.90;;;;;;5034064;28;20049;-88
2021/12/21 05:28:04;;;;;;;33.55;20.40;;;2.80;99.90;;;;;;5030916;28;20026;-88
2021/12/21 05:30:30;;;;;;;31.88;19.48;;;2.90;99.90;;;;;;5031733;28;20442;-88
2021/12/21 05:32:57;;;;;;;33.60;19.40;;;2.90;99.90;;;;;;5034284;28;20025;-88
2021/12/21 05:35:25;;;;;;;33.83;20.67;;;2.90;99.90;;;;;;5033561;28;20032;-88
2021/12/21 05:37:53;;;;;;;32.70;20.20;;;2.80;99.90;;;;;;5034003;28;20030;-88
2021/12/21 05:40:19;;;;;;;34.17;20.65;;;3.10;99.90;;;;;;5032728;28;20070;-88
2021/12/21 05:42:48;;;;;;;32.47;19.90;;;2.60;99.90;;;;;;5029703;28;20029;-88
2021/12/21 05:45:16;;;;;;;33.85;19.92;;;2.50;99.90;;;;;;5035037;28;20111;-88
2021/12/21 05:47:43;;;;;;;35.17;20.55;;;2.50;99.90;;;;;;5015413;28;20394;-88
2021/12/21 05:50:15;;;;;;;34.38;20.80;;;2.40;99.90;;;;;;5033931;28;20040;-89
2021/12/21 05:52:41;;;;;;;35.40;20.95;;;2.40;99.90;;;;;;5034133;28;20022;-89
2021/12/21 05:55:07;;;;;;;32.53;19.63;;;2.30;99.90;;;;;;5014908;28;20032;-88
2021/12/21 05:57:33;;;;;;;34.45;20.15;;;2.30;99.90;;;;;;5031002;28;20033;-88
2021/12/21 05:59:59;;;;;;;33.88;20.77;;;2.70;99.90;;;;;;5035697;28;20054;-88
2021/12/21 06:02:25;;;;;;;34.97;20.60;;;2.00;99.90;;;;;;5043129;28;20052;-88
2021/12/21 06:04:50;;;;;;;32.90;19.25;;;1.80;99.90;;;;;;5021999;28;20021;-87
2021/12/21 06:07:16;;;;;;;39.45;20.23;;;1.70;99.90;;;;;;5032266;28;20037;-88
2021/12/21 06:09:45;;;;;;;37.88;21.58;;;1.60;99.90;;;;;;5028802;28;20113;-88
2021/12/21 06:12:29;;;;;;;40.63;21.08;;;1.50;99.90;;;;;;5046630;28;20033;-88
2021/12/21 06:28:12;;;;;;;43.30;23.95;;;1.20;99.90;;;;;;5033841;28;20042;-88
2021/12/21 06:30:40;;;;;;;47.05;23.73;;;1.20;99.90;;;;;;5033849;28;20029;-88
2021/12/21 06:33:07;;;;;;;45.17;23.52;;;1.10;99.90;;;;;;5032784;28;20480;-88
2021/12/21 06:35:34;;;;;;;52.45;25.83;;;1.10;99.90;;;;;;5038253;28;20030;-88
2021/12/21 06:38:00;;;;;;;48.90;25.08;;;1.00;99.90;;;;;;5037044;28;20618;-88
2021/12/21 06:40:26;;;;;;;52.13;25.83;;;1.00;99.90;;;;;;5036961;28;20083;-88
2021/12/21 06:42:53;;;;;;;49.00;26.92;;;1.00;99.90;;;;;;5015717;28;20033;-88
2021/12/21 06:45:42;;;;;;;49.15;26.40;;;0.90;99.90;;;;;;5036328;28;20025;-89
2021/12/21 06:53:44;;;;;;;41.70;23.17;;;0.80;99.90;;;;;;5036234;28;20468;-88
2021/12/21 06:56:10;;;;;;;47.38;24.50;;;0.90;99.90;;;;;;5018722;28;20033;-88
2021/12/21 06:58:36;;;;;;;51.03;25.85;;;0.90;99.90;;;;;;5036892;28;20029;-88
2021/12/21 07:01:03;;;;;;;44.75;24.27;;;0.90;99.90;;;;;;5034284;28;20055;-88
2021/12/21 07:03:29;;;;;;;51.05;25.40;;;0.80;99.90;;;;;;5033867;28;20028;-89
2021/12/21 07:06:01;;;;;;;46.80;24.15;;;1.50;99.90;;;;;;5038595;28;20029;-94
2021/12/21 07:08:29;;;;;;;49.00;23.95;;;0.80;99.90;;;;;;5036982;28;20477;-93
2021/12/21 07:11:11;;;;;;;45.58;23.63;;;0.70;99.90;;;;;;5004307;28;20034;-89
2021/12/21 07:19:10;;;;;;;48.00;25.02;;;0.70;99.90;;;;;;4948443;29;20071;-90
2021/12/21 07:21:38;;;;;;;46.08;24.63;;;0.60;99.90;;;;;;4938255;28;20043;-89
2021/12/21 07:24:05;;;;;;;49.92;25.75;;;0.70;99.90;;;;;;4935508;29;20118;-89
2021/12/21 07:26:31;;;;;;;48.63;25.77;;;0.70;99.90;;;;;;4949334;28;20039;-89
2021/12/21 07:28:56;;;;;;;50.05;26.48;;;0.60;99.90;;;;;;4937698;29;20427;-88
2021/12/21 07:31:22;;;;;;;51.50;25.85;;;0.80;99.90;;;;;;4936488;29;20037;-89
2021/12/21 07:33:48;;;;;;;48.45;25.58;;;0.60;99.90;;;;;;4952099;28;20055;-90
2021/12/21 07:36:14;;;;;;;48.22;25.17;;;1.10;99.90;;;;;;4954207;28;20566;-88
2021/12/21 07:38:39;;;;;;;42.78;23.77;;;1.60;99.90;;;;;;4934655;29;20070;-89
2021/12/21 07:41:05;;;;;;;48.15;24.88;;;1.90;99.90;;;;;;4950023;28;20047;-89
2021/12/21 07:43:31;;;;;;;46.95;24.33;;;2.40;99.90;;;;;;4935978;29;20511;-89
2021/12/21 07:45:57;;;;;;;41.53;22.58;;;3.20;99.90;;;;;;4949479;28;20044;-88
2021/12/21 07:48:23;;;;;;;41.03;23.05;;;2.60;99.90;;;;;;4953044;28;20114;-88
2021/12/21 07:50:51;;;;;;;51.85;26.05;;;3.60;99.90;;;;;;4950630;28;20082;-88
2021/12/21 07:53:19;;;;;;;43.03;25.60;;;3.70;99.90;;;;;;4971393;28;20052;-88
2021/12/21 07:55:45;;;;;;;44.80;23.45;;;4.20;99.90;;;;;;5029258;28;20021;-88
2021/12/21 07:58:11;;;;;;;39.25;23.02;;;4.30;99.90;;;;;;5029585;28;20111;-89
2021/12/21 08:00:37;;;;;;;39.38;22.73;;;5.00;99.90;;;;;;5029492;28;20470;-88
2021/12/21 08:03:03;;;;;;;39.58;21.88;;;4.80;99.90;;;;;;5037559;28;20026;-88
2021/12/21 08:05:32;;;;;;;37.83;22.48;;;5.50;99.90;;;;;;5026628;28;20036;-87
2021/12/21 08:08:09;;;;;;;38.08;21.55;;;5.90;99.90;;;;;;5045900;28;20032;-89
2021/12/21 08:12:12;;;;;;;35.45;21.45;;;6.70;99.90;;;;;;5036935;28;20116;-89
2021/12/21 08:13:31;;;;;;;35.10;21.67;;;7.30;99.90;;;;;;5026449;28;20033;-87
2021/12/21 08:15:56;;;;;;;34.42;21.40;;;7.00;99.90;;;;;;5014423;28;20036;-87
2021/12/21 08:18:22;;;;;;;32.28;20.83;;;7.00;99.90;;;;;;5050611;28;20029;-85
2021/12/21 08:20:48;;;;;;;38.67;21.95;;;7.50;99.90;;;;;;5034907;28;20021;-87
2021/12/21 08:23:13;;;;;;;32.53;21.23;;;8.20;99.90;;;;;;5034336;28;20033;-86
2021/12/21 08:25:39;;;;;;;35.63;22.33;;;8.50;99.90;;;;;;5034470;28;20036;-87
2021/12/21 08:28:06;;;;;;;36.95;22.20;;;9.60;99.90;;;;;;5033477;28;20134;-88
2021/12/21 08:30:33;;;;;;;34.67;21.25;;;11.10;99.90;;;;;;5031575;28;20497;-87
2021/12/21 08:32:58;;;;;;;52.25;20.98;;;11.10;99.90;;;;;;5018964;28;20059;-88
2021/12/21 08:35:25;;;;;;;31.13;20.17;;;11.80;99.90;;;;;;5032406;28;20036;-88
2021/12/21 08:38:00;;;;;;;29.90;19.75;;;12.60;99.90;;;;;;5034555;28;20140;-88
2021/12/21 08:40:26;;;;;;;31.38;21.13;;;13.00;99.90;;;;;;5035090;28;20029;-89
2021/12/21 08:42:52;;;;;;;30.63;20.80;;;12.90;99.90;;;;;;5012397;28;20041;-88
2021/12/21 08:45:19;;;;;;;30.10;20.42;;;13.30;99.90;;;;;;5034589;28;20398;-88
2021/12/21 08:47:44;;;;;;;31.35;20.45;;;13.00;99.90;;;;;;5035091;28;20482;-87
2021/12/21 08:50:13;;;;;;;28.58;19.38;;;14.80;99.90;;;;;;5016700;28;20083;-87
2021/12/21 08:52:39;;;;;;;28.23;19.50;;;14.50;99.90;;;;;;5033170;28;20025;-88
2021/12/21 08:55:07;;;;;;;28.77;19.70;;;15.40;99.90;;;;;;5032636;28;20048;-88
2021/12/21 08:57:33;;;;;;;29.13;19.92;;;16.60;99.90;;;;;;5031718;28;20057;-87
2021/12/21 08:59:59;;;;;;;33.35;20.13;;;16.20;99.90;;;;;;5034560;28;20111;-88
2021/12/21 09:02:28;;;;;;;31.50;19.67;;;16.80;99.90;;;;;;5034169;28;20049;-88
2021/12/21 09:04:53;;;;;;;28.00;19.55;;;15.20;99.90;;;;;;5034325;28;20414;-88
2021/12/21 09:07:19;;;;;;;30.48;19.48;;;15.20;99.90;;;;;;5034304;28;20040;-89
2021/12/21 09:09:44;;;;;;;29.15;19.85;;;15.80;99.90;;;;;;5030088;28;20160;-89
2021/12/21 09:12:10;;;;;;;29.38;20.85;;;15.90;99.90;;;;;;5043338;28;20025;-88
2021/12/21 09:14:37;;;;;;;33.42;20.58;;;16.00;99.90;;;;;;5034643;28;20033;-89
2021/12/21 09:17:03;;;;;;;35.08;21.30;;;16.70;99.90;;;;;;5034461;28;20108;-88
2021/12/21 09:19:30;;;;;;;32.83;20.90;;;15.90;99.90;;;;;;5016185;28;20032;-88
2021/12/21 09:21:56;;;;;;;31.80;21.38;;;16.20;99.90;;;;;;5029920;28;20018;-87
2021/12/21 09:24:22;;;;;;;35.00;21.05;;;16.20;99.90;;;;;;5033365;28;20359;-88
2021/12/21 09:26:47;;;;;;;29.33;20.67;;;16.40;99.90;;;;;;5033916;28;20091;-89
2021/12/21 09:29:13;;;;;;;30.65;19.95;;;16.10;99.90;;;;;;5033704;28;20068;-88
2021/12/21 09:31:39;;;;;;;27.88;20.10;;;16.00;99.90;;;;;;5033311;28;20555;-89
2021/12/21 09:34:04;;;;;;;25.88;18.95;;;16.80;99.90;;;;;;5031295;28;20026;-89
2021/12/21 09:36:30;;;;;;;27.88;19.88;;;16.10;99.90;;;;;;5031376;28;20037;-88
2021/12/21 09:38:57;;;;;;;27.13;19.30;;;16.90;99.90;;;;;;5036659;28;20075;-89
2021/12/21 09:41:24;;;;;;;26.17;19.17;;;17.30;99.90;;;;;;5033997;28;20099;-90
2021/12/21 09:43:50;;;;;;;28.80;20.52;;;16.30;99.90;;;;;;5033438;28;20029;-88
2021/12/21 09:46:16;;;;;;;26.50;19.13;;;17.50;99.90;;;;;;5036312;28;20043;-89
2021/12/21 09:48:42;;;;;;;27.45;20.67;;;17.70;99.90;;;;;;5033659;28;20034;-88
2021/12/21 09:51:08;;;;;;;85.45;25.17;;;16.90;99.90;;;;;;5039868;28;20404;-88
2021/12/21 09:53:35;;;;;;;40.63;21.05;;;18.70;99.90;;;;;;5044109;28;20075;-88
2021/12/21 09:56:05;;;;;;;30.05;19.77;;;18.20;99.90;;;;;;5043222;28;20025;-92
2021/12/21 09:58:31;;;;;;;29.98;20.50;;;18.80;99.90;;;;;;5016978;28;20030;-90
2021/12/21 10:00:57;;;;;;;27.67;20.67;;;18.20;99.90;;;;;;5035576;28;20091;-91
2021/12/21 10:03:23;;;;;;;28.77;20.08;;;18.80;99.90;;;;;;5054161;28;20040;-90
2021/12/21 10:05:49;;;;;;;30.45;19.85;;;18.60;99.90;;;;;;5039316;28;20064;-89
2021/12/21 10:08:20;;;;;;;24.17;19.27;;;19.10;99.90;;;;;;5037400;28;20045;-88
2021/12/21 10:10:52;;;;;;;25.38;19.33;;;20.30;99.90;;;;;;5035883;28;20025;-88
2021/12/21 10:13:21;;;;;;;27.38;20.05;;;20.30;99.90;;;;;;5018648;28;20497;-89
2021/12/21 10:15:52;;;;;;;29.90;19.95;;;18.90;99.90;;;;;;5014406;28;20029;-89
2021/12/21 10:18:28;;;;;;;26.30;19.67;;;18.20;99.90;;;;;;5054298;28;20036;-90
2021/12/21 10:21:00;;;;;;;25.58;19.40;;;18.70;99.90;;;;;;5037547;28;20021;-92
2021/12/21 10:23:31;;;;;;;23.45;19.20;;;18.80;99.90;;;;;;5017360;28;20104;-90
2021/12/21 10:26:05;;;;;;;27.23;19.55;;;20.30;99.90;;;;;;5021165;28;20526;-90
2021/12/21 10:28:49;;;;;;;25.17;20.02;;;20.70;99.90;;;;;;5023885;28;20045;-90
2021/12/21 10:31:23;;;;;;;27.90;19.85;;;20.10;99.90;;;;;;5019238;28;20029;-91
2021/12/21 10:33:49;;;;;;;27.80;21.52;;;19.20;99.90;;;;;;5019045;28;20041;-91
2021/12/21 10:36:16;;;;;;;25.73;20.23;;;20.30;99.90;;;;;;5035243;28;20114;-92
2021/12/21 10:38:43;;;;;;;24.45;19.70;;;20.20;99.90;;;;;;5027094;28;20033;-92
2021/12/21 10:41:16;;;;;;;22.70;18.63;;;20.00;99.90;;;;;;5050116;28;20033;-88
2021/12/21 10:43:42;;;;;;;23.45;19.00;;;19.20;99.90;;;;;;5045182;28;20421;-89
2021/12/21 10:46:08;;;;;;;23.40;18.30;;;18.70;99.90;;;;;;5016807;28;20493;-92
2021/12/21 10:48:36;;;;;;;23.75;18.20;;;18.30;99.90;;;;;;5037415;28;20032;-92
2021/12/21 10:51:08;;;;;;;22.35;17.77;;;18.60;99.90;;;;;;5040752;28;20108;-90
2021/12/21 10:53:33;;;;;;;23.33;19.23;;;17.90;99.90;;;;;;5019458;28;20112;-88
2021/12/21 10:56:07;;;;;;;22.52;17.55;;;17.90;99.90;;;;;;5035117;28;20071;-89
2021/12/21 10:58:42;;;;;;;21.67;17.25;;;18.70;99.90;;;;;;5036746;28;20028;-89
2021/12/21 11:01:15;;;;;;;22.77;17.98;;;17.70;99.90;;;;;;5035281;28;20413;-91
2021/12/21 11:03:51;;;;;;;26.35;19.40;;;18.20;99.90;;;;;;5032445;28;20038;-89
2021/12/21 11:06:22;;;;;;;26.73;18.35;;;19.20;99.90;;;;;;5014644;28;20451;-93
2021/12/21 11:08:52;;;;;;;22.77;18.30;;;19.20;99.90;;;;;;5037483;28;20033;-91
2021/12/21 11:11:22;;;;;;;22.50;17.33;;;19.20;99.90;;;;;;5017772;28;20036;-92
2021/12/21 11:14:13;;;;;;;25.23;19.23;;;18.90;99.90;;;;;;5036937;28;20033;-91
2021/12/21 11:16:46;;;;;;;26.10;17.98;;;19.40;99.90;;;;;;5021062;28;20029;-90
2021/12/21 11:19:14;;;;;;;26.38;18.90;;;18.50;99.90;;;;;;5046698;28;20029;-95
2021/12/21 11:21:42;;;;;;;26.52;19.33;;;18.60;99.90;;;;;;5014195;28;20057;-96
2021/12/21 11:24:10;;;;;;;21.00;17.48;;;19.70;99.90;;;;;;5037874;28;20022;-92
2021/12/21 11:26:37;;;;;;;30.67;18.25;;;19.30;99.90;;;;;;5018792;28;20034;-90
2021/12/21 11:29:08;;;;;;;23.90;18.52;;;19.20;99.90;;;;;;5035270;28;20481;-91
2021/12/21 11:31:39;;;;;;;24.17;17.80;;;19.10;99.90;;;;;;5035288;28;20017;-93
2021/12/21 11:34:08;;;;;;;22.73;17.75;;;18.70;99.90;;;;;;5032536;28;20445;-91
2021/12/21 11:39:21;;;;;;;28.85;19.55;;;18.80;99.90;;;;;;5050878;28;20456;-93
2021/12/21 11:41:47;;;;;;;22.63;17.83;;;18.70;99.90;;;;;;5019311;28;20032;-90
2021/12/21 11:44:21;;;;;;;22.92;17.65;;;17.90;99.90;;;;;;5035413;28;20120;-91
2021/12/21 11:47:01;;;;;;;24.27;17.17;;;18.20;99.90;;;;;;5017353;28;20412;-94
2021/12/21 11:50:00;;;;;;;21.33;17.70;;;19.00;99.90;;;;;;5047925;28;20029;-96
2021/12/21 11:52:28;;;;;;;23.27;17.88;;;19.60;99.90;;;;;;4936571;29;20057;-96
2021/12/21 11:55:13;;;;;;;24.23;18.00;;;20.10;99.90;;;;;;4919499;29;20031;-92
2021/12/21 11:57:47;;;;;;;23.20;18.38;;;20.10;99.90;;;;;;4918841;29;20027;-91
2021/12/21 12:00:19;;;;;;;21.13;16.88;;;19.90;99.90;;;;;;4945912;29;20058;-90
2021/12/21 12:02:46;;;;;;;21.00;17.52;;;20.70;99.90;;;;;;4950752;29;20057;-88
2021/12/21 12:05:30;;;;;;;21.83;17.77;;;20.50;99.90;;;;;;4941639;29;20538;-89
2021/12/21 12:08:05;;;;;;;21.80;18.25;;;19.40;99.90;;;;;;4920901;29;20056;-92
2021/12/21 12:10:33;;;;;;;21.67;17.80;;;20.40;99.90;;;;;;4938053;29;20027;-92
2021/12/21 12:13:13;;;;;;;24.10;18.15;;;19.40;99.90;;;;;;4919512;29;20147;-92
2021/12/21 12:15:51;;;;;;;23.33;18.77;;;19.80;99.90;;;;;;4918409;29;20540;-92
2021/12/21 12:18:27;;;;;;;23.08;18.23;;;20.30;99.90;;;;;;4930577;29;20042;-91
2021/12/21 12:20:54;;;;;;;23.27;18.05;;;19.80;99.90;;;;;;4937878;29;20544;-90
2021/12/21 12:23:19;;;;;;;23.83;19.13;;;19.70;99.90;;;;;;4937264;29;20440;-91
2021/12/21 12:25:56;;;;;;;24.33;19.38;;;20.20;99.90;;;;;;4936997;29;20056;-86
2021/12/21 12:28:33;;;;;;;20.92;17.90;;;20.10;99.90;;;;;;5000886;28;20049;-89
2021/12/21 12:31:00;;;;;;;25.63;18.05;;;21.50;99.90;;;;;;5032660;28;20036;-89
2021/12/21 12:33:37;;;;;;;23.23;18.25;;;20.80;99.90;;;;;;5033633;28;20022;-89
2021/12/21 12:36:03;;;;;;;23.55;19.70;;;20.90;99.90;;;;;;5035471;28;20397;-89
2021/12/21 12:38:30;;;;;;;23.75;18.88;;;20.10;99.90;;;;;;5036533;28;20025;-89
2021/12/21 12:41:02;;;;;;;23.60;19.25;;;20.10;99.90;;;;;;5033296;28;20505;-89
2021/12/21 12:43:32;;;;;;;21.00;17.83;;;19.70;99.90;;;;;;5034484;28;20378;-89
2021/12/21 12:46:05;;;;;;;20.83;17.90;;;19.40;99.90;;;;;;5032118;28;20060;-89
2021/12/21 12:48:47;;;;;;;20.90;17.70;;;20.30;99.90;;;;;;5032187;28;20040;-89
2021/12/21 12:51:37;;;;;;;22.65;18.55;;;20.40;99.90;;;;;;5012454;28;20034;-88
2021/12/21 12:54:17;;;;;;;24.23;18.40;;;20.50;99.90;;;;;;5035380;28;20116;-89
2021/12/21 12:56:42;;;;;;;21.00;17.90;;;19.30;99.90;;;;;;5034289;28;20018;-88
2021/12/21 12:59:08;;;;;;;21.45;17.45;;;19.40;99.90;;;;;;5032583;28;20106;-88
2021/12/21 13:01:46;;;;;;;23.88;18.20;;;17.80;99.90;;;;;;5016560;28;20049;-89
2021/12/21 13:04:15;;;;;;;24.40;18.60;;;17.00;99.90;;;;;;5033998;28;20025;-89
2021/12/21 13:06:43;;;;;;;26.85;18.30;;;17.50;99.90;;;;;;5030142;28;20068;-88
2021/12/21 13:09:12;;;;;;;24.20;17.27;;;16.80;99.90;;;;;;5036427;28;20374;-89
2021/12/21 13:11:42;;;;;;;20.38;17.02;;;17.00;99.90;;;;;;5027640;28;20052;-89
2021/12/21 13:14:12;;;;;;;22.85;17.60;;;17.90;99.90;;;;;;5039101;28;20087;-89
2021/12/21 13:16:39;;;;;;;22.73;18.20;;;17.20;99.90;;;;;;5032845;28;20038;-89
2021/12/21 13:19:11;;;;;;;23.63;18.42;;;18.60;99.90;;;;;;5013416;28;20088;-89
2021/12/21 13:21:45;;;;;;;21.77;17.48;;;18.60;99.90;;;;;;5034009;28;20064;-89
2021/12/21 13:24:22;;;;;;;22.58;18.10;;;18.30;99.90;;;;;;5022326;28;20010;-89
2021/12/21 13:26:55;;;;;;;23.23;18.90;;;18.20;99.90;;;;;;5039410;28;20041;-88
2021/12/21 13:29:30;;;;;;;23.02;17.15;;;18.30;99.90;;;;;;5038393;28;20104;-88
2021/12/21 13:31:58;;;;;;;22.17;18.55;;;18.10;99.90;;;;;;5038312;28;20048;-88
2021/12/21 13:34:25;;;;;;;22.50;17.25;;;18.10;99.90;;;;;;5020645;28;20029;-88
2021/12/21 13:37:18;;;;;;;23.35;17.70;;;18.80;99.90;;;;;;5034507;28;20030;-89
2021/12/21 13:39:56;;;;;;;24.17;18.02;;;19.00;99.90;;;;;;5000701;28;20120;-88
2021/12/21 13:42:25;;;;;;;20.63;17.77;;;18.90;99.90;;;;;;5048282;28;20469;-89
2021/12/21 13:44:59;;;;;;;21.73;17.60;;;18.70;99.90;;;;;;5038957;28;20040;-87
2021/12/21 13:47:43;;;;;;;24.02;17.80;;;18.60;99.90;;;;;;5037859;28;20037;-88
2021/12/21 13:50:23;;;;;;;25.92;19.02;;;18.10;99.90;;;;;;5038009;28;20052;-88